createdAt,value
2019-01-27T09:06:33.445Z,100302.76
2019-01-27T09:09:22.168Z,100306.64
2019-01-27T09:12:00.578Z,100291.80
2019-01-27T09:14:51.075Z,100294.66
2019-01-27T09:17:23.551Z,100290.12
2019-01-27T09:22:17.522Z,100280.33
2019-01-27T09:24:59.796Z,100283.20
2019-01-27T09:27:37.437Z,100282.50
2019-01-27T10:45:12.007Z,100226.09
2019-01-27T10:48:01.205Z,100223.87
2019-01-27T10:51:01.325Z,100228.17
2019-01-27T10:53:48.145Z,100228.30
2019-01-27T10:56:54.398Z,100235.19
2019-01-27T10:59:35.805Z,100221.38
2019-01-27T11:02:18.474Z,100230.66
2019-01-27T11:05:12.875Z,100227.09
2019-01-27T11:07:58.065Z,100227.44
2019-01-27T11:10:48.182Z,100229.50
2019-01-27T11:13:37.750Z,100224.41
2019-01-27T11:16:28.725Z,100222.39
2019-01-27T11:19:18.297Z,100220.05
2019-01-27T11:22:01.914Z,100219.70
2019-01-27T11:24:52.629Z,100214.66
2019-01-27T11:27:58.486Z,100220.53
2019-01-27T11:30:47.653Z,100215.48
2019-01-27T11:33:37.027Z,100219.02
2019-01-27T11:36:30.693Z,100216.02
2019-01-27T11:39:40.034Z,100212.97
2019-01-27T11:42:39.739Z,100209.92
2019-01-27T11:45:18.453Z,100215.16
2019-01-27T11:48:15.482Z,100207.05
2019-01-27T11:51:04.643Z,100217.02
2019-01-27T11:53:36.973Z,100212.27
2019-01-27T11:56:09.172Z,100206.58
2019-01-27T11:58:41.476Z,100210.94
2019-01-27T12:01:13.778Z,100206.89
2019-01-27T12:03:45.974Z,100206.89
2019-01-27T12:06:18.130Z,100201.84
2019-01-27T12:08:50.532Z,100208.94
2019-01-27T12:11:22.925Z,100204.89
2019-01-27T12:13:55.158Z,100202.20
2019-01-27T12:16:27.389Z,100204.55
2019-01-27T12:18:59.594Z,100201.50
2019-01-27T12:21:31.675Z,100210.61
2019-01-27T12:24:03.925Z,100207.59
2019-01-27T12:26:36.048Z,100210.61
2019-01-27T12:29:08.140Z,100207.91
2019-01-27T12:31:40.465Z,100210.13
2019-01-27T12:34:12.676Z,100210.30
2019-01-27T12:36:44.960Z,100215.02
2019-01-27T12:39:17.127Z,100213.83
2019-01-27T12:41:51.453Z,100209.96
2019-01-27T12:44:23.740Z,100206.91
2019-01-27T12:46:56.002Z,100205.56
2019-01-27T12:49:28.306Z,100201.92
2019-01-27T12:52:00.543Z,100207.17
2019-01-27T12:54:32.816Z,100202.94
2019-01-27T12:57:06.013Z,100201.92
2019-01-27T12:59:38.181Z,100205.80
2019-01-27T13:02:10.331Z,100211.36
2019-01-27T13:04:42.450Z,100211.66
2019-01-27T13:07:14.577Z,100207.47
2019-01-27T13:09:46.865Z,100214.38
2019-01-27T13:12:19.212Z,100215.41
2019-01-27T13:14:51.526Z,100220.45
2019-01-27T13:17:23.776Z,100216.05
2019-01-27T13:19:55.938Z,100220.10
2019-01-27T13:22:28.153Z,100215.22
2019-01-27T13:25:00.352Z,100225.50
2019-01-27T13:27:32.467Z,100222.45
2019-01-27T13:30:04.565Z,100223.48
2019-01-27T13:32:36.747Z,100230.06
2019-01-27T13:35:09.017Z,100230.90
2019-01-27T13:37:41.285Z,100230.90
2019-01-27T13:40:15.083Z,100229.72
2019-01-27T13:42:47.423Z,100235.47
2019-01-27T13:45:23.382Z,100236.30
2019-01-27T13:47:58.953Z,100236.81
2019-01-27T13:50:29.334Z,100233.77
2019-01-27T13:53:01.534Z,100237.30
2019-01-27T13:56:07.825Z,100234.59
2019-01-27T13:58:39.989Z,100242.22
2019-01-27T14:01:12.318Z,100242.70
2019-01-27T14:03:44.585Z,100245.91
2019-01-27T14:06:16.830Z,100252.15
2019-01-27T14:08:48.921Z,100255.36
2019-01-27T14:11:22.366Z,100252.66
2019-01-27T14:13:55.505Z,100254.84
2019-01-27T14:16:27.758Z,100255.36
2019-01-27T14:18:59.880Z,100263.27
2019-01-27T14:21:32.048Z,100264.97
2019-01-27T14:24:04.171Z,100266.33
2019-01-27T14:26:36.434Z,100267.00
2019-01-27T14:29:08.732Z,100270.53
2019-01-27T14:31:41.932Z,100274.07
2019-01-27T14:34:14.091Z,100276.45
2019-01-27T14:36:46.429Z,100280.98
2019-01-27T14:39:18.724Z,100283.69
2019-01-27T14:41:51.104Z,100282.50
2019-01-27T14:44:23.375Z,100289.25
2019-01-27T14:46:55.552Z,100291.95
2019-01-27T14:49:27.708Z,100290.59
2019-01-27T14:52:00.218Z,100291.95
2019-01-27T14:54:32.581Z,100285.88
2019-01-27T14:57:05.240Z,100293.97
2019-01-27T14:59:37.687Z,100295.80
2019-01-27T15:02:09.877Z,100300.20
2019-01-27T15:04:42.187Z,100293.45
2019-01-27T15:07:14.406Z,100302.55
2019-01-27T15:09:46.845Z,100307.12
2019-01-27T15:12:18.875Z,100305.41
2019-01-27T15:14:51.103Z,100302.39
2019-01-27T15:17:23.425Z,100308.11
2019-01-27T15:19:55.499Z,100313.35
2019-01-27T15:22:27.788Z,100310.49
2019-01-27T15:25:00.225Z,100312.33
2019-01-27T15:27:32.973Z,100317.89
2019-01-27T15:30:05.235Z,100317.53
2019-01-27T15:32:37.550Z,100321.86
2019-01-27T15:35:10.655Z,100316.48
2019-01-27T15:37:43.019Z,100320.09
2019-01-27T15:40:15.731Z,100320.69
2019-01-27T15:42:48.301Z,100325.12
2019-01-27T15:45:27.165Z,100322.41
2019-01-27T15:47:59.450Z,100321.92
2019-01-27T15:50:32.942Z,100324.28
2019-01-27T15:53:05.300Z,100326.13
2019-01-27T15:55:37.750Z,100327.84
2019-01-27T15:58:10.004Z,100335.61
2019-01-27T16:00:42.343Z,100330.21
2019-01-27T16:03:14.663Z,100336.30
2019-01-27T16:05:47.202Z,100336.13
2019-01-27T16:08:19.433Z,100329.72
2019-01-27T16:10:51.439Z,100339.05
2019-01-27T16:13:23.675Z,100335.34
2019-01-27T16:15:55.922Z,100331.95
2019-01-27T16:18:28.422Z,100326.02
2019-01-27T16:21:00.645Z,100332.61
2019-01-27T16:23:47.203Z,100326.19
2019-01-27T16:26:19.387Z,100330.10
2019-01-27T16:28:51.702Z,100322.66
2019-01-27T16:31:42.508Z,100328.23
2019-01-27T16:34:23.001Z,100323.83
2019-01-27T16:36:55.318Z,100326.37
2019-01-27T16:39:27.574Z,100333.48
2019-01-27T16:42:00.232Z,100332.96
2019-01-27T16:44:32.524Z,100336.67
2019-01-27T16:47:04.702Z,100337.37
2019-01-27T16:49:37.023Z,100337.37
2019-01-27T16:52:09.251Z,100335.15
2019-01-27T16:54:41.773Z,100332.61
2019-01-27T16:57:14.052Z,100335.14
2019-01-27T16:59:46.947Z,100330.42
2019-01-27T17:02:19.059Z,100328.91
2019-01-27T17:04:51.320Z,100327.55
2019-01-27T17:07:23.458Z,100327.86
2019-01-27T17:09:55.600Z,100321.09
2019-01-27T17:12:28.358Z,100317.03
2019-01-27T17:15:00.511Z,100321.78
2019-01-27T17:17:32.866Z,100328.89
2019-01-27T17:20:06.191Z,100331.60
2019-01-27T17:22:38.486Z,100330.73
2019-01-27T17:25:10.808Z,100332.92
2019-01-27T17:27:43.305Z,100339.38
2019-01-27T17:30:17.637Z,100336.66
2019-01-27T17:32:50.903Z,100335.26
2019-01-27T17:35:22.973Z,100333.59
2019-01-27T17:37:55.625Z,100329.55
2019-01-27T17:40:27.856Z,100330.72
2019-01-27T17:43:00.024Z,100326.83
2019-01-27T17:45:32.131Z,100332.25
2019-01-27T17:48:04.423Z,100328.67
2019-01-27T17:50:36.759Z,100320.72
2019-01-27T17:53:09.969Z,100320.72
2019-01-27T17:55:46.092Z,100328.84
2019-01-27T17:58:54.383Z,100317.48
2019-01-27T18:01:43.808Z,100328.32
2019-01-27T18:04:33.065Z,100325.11
2019-01-27T18:07:17.754Z,100325.42
2019-01-27T18:10:19.680Z,100321.37
2019-01-27T18:12:59.688Z,100323.75
2019-01-27T18:15:31.973Z,100317.34
2019-01-27T18:18:04.235Z,100318.65
2019-01-27T18:20:36.431Z,100319.65
2019-01-27T18:23:08.683Z,100311.20
2019-01-27T18:25:40.758Z,100317.81
2019-01-27T18:28:12.941Z,100315.27
2019-01-27T18:30:45.211Z,100313.23
2019-01-27T18:33:17.250Z,100313.92
2019-01-27T18:35:49.430Z,100316.28
2019-01-27T18:38:21.537Z,100314.92
2019-01-27T18:40:53.750Z,100314.59
2019-01-27T18:43:25.894Z,100313.56
2019-01-27T18:45:57.885Z,100314.75
2019-01-27T18:48:30.036Z,100311.05
2019-01-27T18:51:02.193Z,100309.52
2019-01-27T18:53:59.043Z,100307.68
2019-01-27T18:56:49.923Z,100311.22
2019-01-27T18:59:28.474Z,100302.75
2019-01-27T19:02:19.521Z,100303.11
2019-01-27T19:05:03.755Z,100312.75
2019-01-27T19:08:00.408Z,100305.75
2019-01-27T19:10:49.887Z,100306.59
2019-01-27T19:13:27.414Z,100309.25
2019-01-27T19:16:20.442Z,100303.52
2019-01-27T19:19:18.612Z,100303.16
2019-01-27T19:22:15.738Z,100308.75
2019-01-27T19:25:16.300Z,100303.33
2019-01-27T19:28:09.863Z,100304.67
2019-01-27T19:31:15.813Z,100310.06
2019-01-27T19:34:09.893Z,100307.20
2019-01-27T19:37:09.954Z,100307.02
2019-01-27T19:40:10.248Z,100308.52
2019-01-27T19:43:00.990Z,100304.45
2019-01-27T19:45:44.275Z,100307.83
2019-01-27T19:48:47.307Z,100307.31
2019-01-27T19:51:36.544Z,100307.66
2019-01-27T19:54:25.998Z,100306.81
2019-01-27T19:57:22.741Z,100301.58
2019-01-27T20:00:08.227Z,100304.43
2019-01-27T20:03:11.309Z,100301.55
2019-01-27T20:05:50.649Z,100304.06
2019-01-27T20:08:40.321Z,100309.29
2019-01-27T20:11:46.766Z,100311.32
2019-01-27T20:14:36.164Z,100306.75
2019-01-27T20:17:26.836Z,100304.56
2019-01-27T20:20:17.685Z,100308.44
2019-01-27T20:23:11.650Z,100305.72
2019-01-27T20:26:08.207Z,100308.94
2019-01-27T20:28:55.451Z,100302.00
2019-01-27T20:31:44.869Z,100303.34
2019-01-27T20:34:54.081Z,100308.39
2019-01-27T20:37:44.964Z,100305.16
2019-01-27T20:40:44.566Z,100304.33
2019-01-27T20:43:33.940Z,100309.34
2019-01-27T20:46:15.574Z,100301.73
2019-01-27T20:49:09.400Z,100310.84
2019-01-27T20:52:01.381Z,100303.77
2019-01-27T20:55:04.275Z,100304.77
2019-01-27T20:57:54.055Z,100307.28
2019-01-27T21:00:39.409Z,100313.87
2019-01-27T21:03:35.049Z,100309.98
2019-01-27T21:06:27.273Z,100312.33
2019-01-27T21:09:11.271Z,100313.02
2019-01-27T21:12:05.356Z,100309.29
2019-01-27T21:14:59.483Z,100305.89
2019-01-27T21:17:50.402Z,100298.14
2019-01-27T21:20:24.083Z,100300.19
2019-01-27T21:22:57.316Z,100294.25
2019-01-27T21:25:29.524Z,100299.81
2019-01-27T21:28:01.676Z,100294.74
2019-01-27T21:30:33.929Z,100302.14
2019-01-27T21:33:06.209Z,100293.88
2019-01-27T21:35:38.244Z,100300.95
2019-01-27T21:38:10.377Z,100289.67
2019-01-27T21:40:42.632Z,100284.41
2019-01-27T21:43:15.814Z,100288.45
2019-01-27T21:45:47.968Z,100286.78
2019-01-27T21:48:20.217Z,100289.13
2019-01-27T21:50:52.275Z,100282.90
2019-01-27T21:53:24.269Z,100281.70
2019-01-27T21:55:56.461Z,100278.14
2019-01-27T21:58:28.551Z,100271.89
2019-01-27T22:01:00.738Z,100272.72
2019-01-27T22:03:33.898Z,100267.00
2019-01-27T22:06:06.883Z,100264.64
2019-01-27T22:08:38.910Z,100265.64
2019-01-27T22:11:11.018Z,100263.27
2019-01-27T22:13:43.053Z,100258.91
2019-01-27T22:16:15.187Z,100266.98
2019-01-27T22:18:47.525Z,100270.19
2019-01-27T22:21:19.620Z,100263.60
2019-01-27T22:23:51.811Z,100271.34
2019-01-27T22:26:23.975Z,100259.53
2019-01-27T22:28:56.157Z,100268.65
2019-01-27T22:31:28.290Z,100268.49
2019-01-27T22:34:00.479Z,100268.30
2019-01-27T22:36:32.668Z,100270.65
2019-01-27T22:39:07.887Z,100261.88
2019-01-27T22:41:40.037Z,100275.05
2019-01-27T22:44:12.205Z,100269.30
2019-01-27T22:46:44.537Z,100269.98
2019-01-27T22:49:16.644Z,100270.63
2019-01-27T22:51:48.968Z,100270.44
2019-01-27T22:54:21.064Z,100262.19
2019-01-27T22:56:53.404Z,100270.63
2019-01-27T22:59:25.664Z,100277.86
2019-01-27T23:01:57.896Z,100266.52
2019-01-27T23:04:30.189Z,100269.58
2019-01-27T23:07:02.425Z,100269.73
2019-01-27T23:09:34.611Z,100263.50
2019-01-27T23:12:06.719Z,100253.38
2019-01-27T23:14:38.861Z,100264.34
2019-01-27T23:17:11.318Z,100269.55
2019-01-27T23:19:44.578Z,100268.20
2019-01-27T23:22:16.601Z,100268.36
2019-01-27T23:24:48.799Z,100273.24
2019-01-27T23:27:21.002Z,100271.89
2019-01-27T23:29:54.274Z,100276.94
2019-01-27T23:32:26.463Z,100275.94
2019-01-27T23:34:58.615Z,100280.85
2019-01-27T23:37:30.691Z,100284.71
2019-01-27T23:40:02.950Z,100282.53
2019-01-27T23:42:36.044Z,100288.89
2019-01-27T23:45:08.271Z,100291.39
2019-01-27T23:47:40.327Z,100288.37
2019-01-27T23:50:12.492Z,100292.10
2019-01-27T23:52:44.671Z,100292.42
2019-01-27T23:55:16.666Z,100299.81
2019-01-27T23:57:48.796Z,100299.01
